sensor_id;sensor_type;location;lat;lon;timestamp;P1;durP1;ratioP1;P2;durP2;ratioP2
8476;SDS011;4275;42.854;23.222;2023-07-31T00:01:41;32.85;;;31.05;;
8476;SDS011;4275;42.854;23.222;2023-07-31T00:04:08;31.77;;;30.08;;
8476;SDS011;4275;42.854;23.222;2023-07-31T00:06:35;33.72;;;31.83;;
8476;SDS011;4275;42.854;23.222;2023-07-31T00:09:02;36.50;;;34.30;;
8476;SDS011;4275;42.854;23.222;2023-07-31T00:11:29;37.72;;;35.33;;
8476;SDS011;4275;42.854;23.222;2023-07-31T00:13:56;39.13;;;36.53;;
8476;SDS011;4275;42.854;23.222;2023-07-31T00:16:24;35.38;;;33.17;;
8476;SDS011;4275;42.854;23.222;2023-07-31T00:18:51;39.13;;;36.58;;
8476;SDS011;4275;42.854;23.222;2023-07-31T00:21:18;38.60;;;36.15;;
8476;SDS011;4275;42.854;23.222;2023-07-31T00:23:45;38.28;;;35.88;;
8476;SDS011;4275;42.854;23.222;2023-07-31T00:26:12;38.20;;;35.80;;
8476;SDS011;4275;42.854;23.222;2023-07-31T00:28:39;37.28;;;35.08;;
8476;SDS011;4275;42.854;23.222;2023-07-31T00:31:06;37.25;;;35.05;;
8476;SDS011;4275;42.854;23.222;2023-07-31T00:33:34;36.63;;;34.58;;
8476;SDS011;4275;42.854;23.222;2023-07-31T00:36:02;36.25;;;34.25;;
8476;SDS011;4275;42.854;23.222;2023-07-31T00:38:29;37.03;;;35.03;;
8476;SDS011;4275;42.854;23.222;2023-07-31T00:40:56;36.58;;;34.58;;
8476;SDS011;4275;42.854;23.222;2023-07-31T00:43:24;35.70;;;33.90;;
8476;SDS011;4275;42.854;23.222;2023-07-31T00:46:07;35.90;;;34.10;;
8476;SDS011;4275;42.854;23.222;2023-07-31T00:51:54;35.85;;;34.15;;
8476;SDS011;4275;42.854;23.222;2023-07-31T00:54:22;33.28;;;31.67;;
8476;SDS011;4275;42.854;23.222;2023-07-31T00:56:49;35.90;;;34.13;;
8476;SDS011;4275;42.854;23.222;2023-07-31T00:59:19;34.80;;;33.10;;
8476;SDS011;4275;42.854;23.222;2023-07-31T01:01:46;38.65;;;36.75;;
8476;SDS011;4275;42.854;23.222;2023-07-31T01:04:13;38.03;;;36.13;;
8476;SDS011;4275;42.854;23.222;2023-07-31T01:06:46;30.80;;;29.30;;
8476;SDS011;4275;42.854;23.222;2023-07-31T01:09:25;35.90;;;34.10;;
8476;SDS011;4275;42.854;23.222;2023-07-31T01:12:01;35.28;;;33.47;;
8476;SDS011;4275;42.854;23.222;2023-07-31T01:14:30;33.70;;;32.00;;
8476;SDS011;4275;42.854;23.222;2023-07-31T01:16:57;35.75;;;33.95;;
8476;SDS011;4275;42.854;23.222;2023-07-31T01:19:24;36.83;;;35.00;;
8476;SDS011;4275;42.854;23.222;2023-07-31T01:22:07;37.33;;;35.53;;
8476;SDS011;4275;42.854;23.222;2023-07-31T01:24:48;38.95;;;37.05;;
8476;SDS011;4275;42.854;23.222;2023-07-31T01:27:28;37.67;;;35.88;;
8476;SDS011;4275;42.854;23.222;2023-07-31T01:30:03;37.15;;;35.35;;
8476;SDS011;4275;42.854;23.222;2023-07-31T01:32:36;38.83;;;36.92;;
8476;SDS011;4275;42.854;23.222;2023-07-31T01:35:07;36.80;;;35.10;;
8476;SDS011;4275;42.854;23.222;2023-07-31T01:37:34;35.28;;;33.58;;
8476;SDS011;4275;42.854;23.222;2023-07-31T01:40:01;34.88;;;33.28;;
8476;SDS011;4275;42.854;23.222;2023-07-31T01:42:30;30.55;;;29.15;;
8476;SDS011;4275;42.854;23.222;2023-07-31T01:44:57;32.83;;;31.33;;
8476;SDS011;4275;42.854;23.222;2023-07-31T01:47:24;30.02;;;28.67;;
8476;SDS011;4275;42.854;23.222;2023-07-31T01:49:55;27.67;;;26.48;;
8476;SDS011;4275;42.854;23.222;2023-07-31T01:52:37;26.15;;;25.05;;
8476;SDS011;4275;42.854;23.222;2023-07-31T01:55:04;23.73;;;22.73;;
8476;SDS011;4275;42.854;23.222;2023-07-31T01:57:36;20.60;;;19.80;;
8476;SDS011;4275;42.854;23.222;2023-07-31T02:00:13;22.83;;;21.92;;
8476;SDS011;4275;42.854;23.222;2023-07-31T02:02:40;22.60;;;21.70;;
8476;SDS011;4275;42.854;23.222;2023-07-31T02:05:07;22.00;;;21.10;;
8476;SDS011;4275;42.854;23.222;2023-07-31T02:07:34;21.67;;;20.77;;
8476;SDS011;4275;42.854;23.222;2023-07-31T02:10:14;20.83;;;20.02;;
8476;SDS011;4275;42.854;23.222;2023-07-31T02:12:42;19.25;;;18.55;;
8476;SDS011;4275;42.854;23.222;2023-07-31T02:15:09;20.40;;;19.60;;
8476;SDS011;4275;42.854;23.222;2023-07-31T02:17:36;20.30;;;19.50;;
8476;SDS011;4275;42.854;23.222;2023-07-31T02:20:03;20.50;;;19.70;;
8476;SDS011;4275;42.854;23.222;2023-07-31T02:22:31;19.90;;;19.10;;
8476;SDS011;4275;42.854;23.222;2023-07-31T02:24:58;20.40;;;19.60;;
8476;SDS011;4275;42.854;23.222;2023-07-31T02:27:25;19.70;;;19.00;;
8476;SDS011;4275;42.854;23.222;2023-07-31T02:29:54;18.88;;;18.17;;
8476;SDS011;4275;42.854;23.222;2023-07-31T02:32:27;17.75;;;17.15;;
8476;SDS011;4275;42.854;23.222;2023-07-31T02:38:16;16.20;;;15.70;;
8476;SDS011;4275;42.854;23.222;2023-07-31T02:40:43;16.65;;;16.10;;
8476;SDS011;4275;42.854;23.222;2023-07-31T02:43:10;13.85;;;13.45;;
8476;SDS011;4275;42.854;23.222;2023-07-31T02:45:39;13.32;;;12.93;;
8476;SDS011;4275;42.854;23.222;2023-07-31T02:48:06;12.88;;;12.48;;
8476;SDS011;4275;42.854;23.222;2023-07-31T02:50:32;11.77;;;11.48;;
8476;SDS011;4275;42.854;23.222;2023-07-31T02:52:59;11.15;;;10.85;;
8476;SDS011;4275;42.854;23.222;2023-07-31T02:55:26;11.15;;;10.85;;
8476;SDS011;4275;42.854;23.222;2023-07-31T02:57:54;11.18;;;10.88;;
8476;SDS011;4275;42.854;23.222;2023-07-31T03:00:21;10.48;;;10.18;;
8476;SDS011;4275;42.854;23.222;2023-07-31T03:02:49;10.45;;;10.15;;
8476;SDS011;4275;42.854;23.222;2023-07-31T03:05:16;10.50;;;10.20;;
8476;SDS011;4275;42.854;23.222;2023-07-31T03:07:43;10.68;;;10.38;;
8476;SDS011;4275;42.854;23.222;2023-07-31T03:13:28;10.10;;;9.80;;
8476;SDS011;4275;42.854;23.222;2023-07-31T03:15:55;10.27;;;9.98;;
8476;SDS011;4275;42.854;23.222;2023-07-31T03:18:24;10.20;;;9.90;;
8476;SDS011;4275;42.854;23.222;2023-07-31T03:20:51;10.40;;;10.10;;
8476;SDS011;4275;42.854;23.222;2023-07-31T03:23:17;10.77;;;10.48;;
8476;SDS011;4275;42.854;23.222;2023-07-31T03:25:55;10.00;;;9.70;;
8476;SDS011;4275;42.854;23.222;2023-07-31T03:28:24;10.00;;;9.70;;
8476;SDS011;4275;42.854;23.222;2023-07-31T03:36:53;9.18;;;8.98;;
8476;SDS011;4275;42.854;23.222;2023-07-31T03:39:20;9.20;;;9.00;;
8476;SDS011;4275;42.854;23.222;2023-07-31T03:41:47;8.50;;;8.30;;
8476;SDS011;4275;42.854;23.222;2023-07-31T03:47:34;9.50;;;9.20;;
8476;SDS011;4275;42.854;23.222;2023-07-31T03:50:03;8.70;;;8.50;;
8476;SDS011;4275;42.854;23.222;2023-07-31T03:52:30;8.60;;;8.40;;
8476;SDS011;4275;42.854;23.222;2023-07-31T04:10:59;8.05;;;7.85;;
8476;SDS011;4275;42.854;23.222;2023-07-31T04:19:47;8.65;;;8.45;;
8476;SDS011;4275;42.854;23.222;2023-07-31T04:22:14;10.52;;;10.23;;
8476;SDS011;4275;42.854;23.222;2023-07-31T04:24:41;12.70;;;12.30;;
8476;SDS011;4275;42.854;23.222;2023-07-31T04:33:53;15.20;;;14.70;;
8476;SDS011;4275;42.854;23.222;2023-07-31T04:39:26;14.65;;;14.15;;
8476;SDS011;4275;42.854;23.222;2023-07-31T04:45:27;14.30;;;13.80;;
8476;SDS011;4275;42.854;23.222;2023-07-31T04:47:59;15.35;;;14.75;;
8476;SDS011;4275;42.854;23.222;2023-07-31T04:50:27;15.10;;;14.60;;
8476;SDS011;4275;42.854;23.222;2023-07-31T04:55:56;13.70;;;13.30;;
8476;SDS011;4275;42.854;23.222;2023-07-31T05:01:20;15.50;;;14.80;;
8476;SDS011;4275;42.854;23.222;2023-07-31T05:03:47;16.65;;;15.95;;
8476;SDS011;4275;42.854;23.222;2023-07-31T05:06:15;16.80;;;16.00;;
8476;SDS011;4275;42.854;23.222;2023-07-31T05:08:42;16.58;;;15.88;;
8476;SDS011;4275;42.854;23.222;2023-07-31T05:11:09;16.15;;;15.38;;
8476;SDS011;4275;42.854;23.222;2023-07-31T05:13:36;14.77;;;14.18;;
8476;SDS011;4275;42.854;23.222;2023-07-31T05:16:03;14.20;;;13.60;;
8476;SDS011;4275;42.854;23.222;2023-07-31T05:18:30;14.00;;;13.40;;
8476;SDS011;4275;42.854;23.222;2023-07-31T05:20:57;14.27;;;13.68;;
8476;SDS011;4275;42.854;23.222;2023-07-31T05:23:26;13.93;;;13.32;;
8476;SDS011;4275;42.854;23.222;2023-07-31T05:25:53;13.95;;;13.35;;
8476;SDS011;4275;42.854;23.222;2023-07-31T05:28:20;13.90;;;13.30;;
8476;SDS011;4275;42.854;23.222;2023-07-31T05:30:48;13.75;;;13.15;;
8476;SDS011;4275;42.854;23.222;2023-07-31T05:33:15;13.70;;;13.10;;
8476;SDS011;4275;42.854;23.222;2023-07-31T05:35:42;13.65;;;13.05;;
8476;SDS011;4275;42.854;23.222;2023-07-31T05:38:10;13.80;;;13.20;;
8476;SDS011;4275;42.854;23.222;2023-07-31T05:40:38;13.88;;;13.27;;
8476;SDS011;4275;42.854;23.222;2023-07-31T05:43:05;13.23;;;12.73;;
8476;SDS011;4275;42.854;23.222;2023-07-31T05:45:33;13.43;;;12.93;;
8476;SDS011;4275;42.854;23.222;2023-07-31T05:48:00;13.85;;;13.25;;
8476;SDS011;4275;42.854;23.222;2023-07-31T05:50:27;13.90;;;13.30;;
8476;SDS011;4275;42.854;23.222;2023-07-31T05:52:54;14.45;;;13.75;;
8476;SDS011;4275;42.854;23.222;2023-07-31T05:55:21;14.55;;;13.85;;
8476;SDS011;4275;42.854;23.222;2023-07-31T05:57:50;14.32;;;13.63;;
8476;SDS011;4275;42.854;23.222;2023-07-31T06:00:17;14.80;;;14.00;;
8476;SDS011;4275;42.854;23.222;2023-07-31T06:02:44;15.25;;;14.45;;
8476;SDS011;4275;42.854;23.222;2023-07-31T06:05:11;14.93;;;14.13;;
8476;SDS011;4275;42.854;23.222;2023-07-31T06:07:38;15.00;;;14.20;;
8476;SDS011;4275;42.854;23.222;2023-07-31T06:10:05;15.38;;;14.48;;
8476;SDS011;4275;42.854;23.222;2023-07-31T06:12:33;15.55;;;14.65;;
8476;SDS011;4275;42.854;23.222;2023-07-31T06:15:03;15.88;;;14.98;;
8476;SDS011;4275;42.854;23.222;2023-07-31T06:17:31;15.60;;;14.70;;
8476;SDS011;4275;42.854;23.222;2023-07-31T06:19:58;15.55;;;14.65;;
8476;SDS011;4275;42.854;23.222;2023-07-31T06:22:25;15.32;;;14.48;;
8476;SDS011;4275;42.854;23.222;2023-07-31T06:24:52;15.18;;;14.38;;
8476;SDS011;4275;42.854;23.222;2023-07-31T06:27:19;14.65;;;13.95;;
8476;SDS011;4275;42.854;23.222;2023-07-31T06:29:46;14.32;;;13.63;;
8476;SDS011;4275;42.854;23.222;2023-07-31T06:32:14;14.25;;;13.55;;
8476;SDS011;4275;42.854;23.222;2023-07-31T06:34:41;14.23;;;13.52;;
8476;SDS011;4275;42.854;23.222;2023-07-31T06:37:08;14.48;;;13.77;;
8476;SDS011;4275;42.854;23.222;2023-07-31T06:39:35;14.60;;;13.90;;
8476;SDS011;4275;42.854;23.222;2023-07-31T06:42:02;15.25;;;14.45;;
8476;SDS011;4275;42.854;23.222;2023-07-31T06:44:30;15.05;;;14.25;;
8476;SDS011;4275;42.854;23.222;2023-07-31T06:46:57;15.05;;;14.25;;
8476;SDS011;4275;42.854;23.222;2023-07-31T06:49:25;15.55;;;14.65;;
8476;SDS011;4275;42.854;23.222;2023-07-31T06:51:52;15.10;;;14.30;;
8476;SDS011;4275;42.854;23.222;2023-07-31T06:54:19;14.48;;;13.77;;
8476;SDS011;4275;42.854;23.222;2023-07-31T06:56:46;14.32;;;13.63;;
8476;SDS011;4275;42.854;23.222;2023-07-31T06:59:13;13.35;;;12.75;;
8476;SDS011;4275;42.854;23.222;2023-07-31T07:01:40;13.18;;;12.60;;
8476;SDS011;4275;42.854;23.222;2023-07-31T07:04:07;12.85;;;12.35;;
8476;SDS011;4275;42.854;23.222;2023-07-31T07:06:36;13.23;;;12.70;;
8476;SDS011;4275;42.854;23.222;2023-07-31T07:09:03;13.55;;;12.95;;
8476;SDS011;4275;42.854;23.222;2023-07-31T07:11:30;13.43;;;12.82;;
8476;SDS011;4275;42.854;23.222;2023-07-31T07:13:57;13.85;;;13.25;;
8476;SDS011;4275;42.854;23.222;2023-07-31T07:16:24;14.18;;;13.48;;
8476;SDS011;4275;42.854;23.222;2023-07-31T07:18:51;14.43;;;13.73;;
8476;SDS011;4275;42.854;23.222;2023-07-31T07:21:18;14.43;;;13.73;;
8476;SDS011;4275;42.854;23.222;2023-07-31T07:23:46;14.35;;;13.65;;
8476;SDS011;4275;42.854;23.222;2023-07-31T07:26:13;14.60;;;13.90;;
8476;SDS011;4275;42.854;23.222;2023-07-31T07:28:40;15.80;;;14.93;;
8476;SDS011;4275;42.854;23.222;2023-07-31T07:31:07;15.85;;;14.95;;
8476;SDS011;4275;42.854;23.222;2023-07-31T07:33:34;16.02;;;15.13;;
8476;SDS011;4275;42.854;23.222;2023-07-31T07:36:01;16.25;;;15.35;;
8476;SDS011;4275;42.854;23.222;2023-07-31T07:38:29;16.85;;;15.85;;
8476;SDS011;4275;42.854;23.222;2023-07-31T07:40:57;16.30;;;15.40;;
8476;SDS011;4275;42.854;23.222;2023-07-31T07:43:24;17.05;;;16.05;;
8476;SDS011;4275;42.854;23.222;2023-07-31T07:45:51;16.27;;;15.38;;
8476;SDS011;4275;42.854;23.222;2023-07-31T07:48:18;16.88;;;15.88;;
8476;SDS011;4275;42.854;23.222;2023-07-31T07:50:45;17.40;;;16.40;;
8476;SDS011;4275;42.854;23.222;2023-07-31T07:53:12;17.30;;;16.20;;
8476;SDS011;4275;42.854;23.222;2023-07-31T07:55:39;17.10;;;16.10;;
8476;SDS011;4275;42.854;23.222;2023-07-31T07:58:07;17.20;;;16.25;;
8476;SDS011;4275;42.854;23.222;2023-07-31T08:00:35;37.83;;;34.88;;
8476;SDS011;4275;42.854;23.222;2023-07-31T08:03:01;17.08;;;16.17;;
8476;SDS011;4275;42.854;23.222;2023-07-31T08:05:29;16.95;;;16.05;;
8476;SDS011;4275;42.854;23.222;2023-07-31T08:07:59;17.08;;;16.17;;
8476;SDS011;4275;42.854;23.222;2023-07-31T08:10:26;17.23;;;16.33;;
8476;SDS011;4275;42.854;23.222;2023-07-31T08:12:53;17.00;;;16.10;;
8476;SDS011;4275;42.854;23.222;2023-07-31T08:15:21;16.92;;;16.02;;
8476;SDS011;4275;42.854;23.222;2023-07-31T08:17:48;16.98;;;16.17;;
8476;SDS011;4275;42.854;23.222;2023-07-31T08:20:15;16.40;;;15.60;;
8476;SDS011;4275;42.854;23.222;2023-07-31T08:22:42;16.58;;;15.77;;
8476;SDS011;4275;42.854;23.222;2023-07-31T08:25:09;16.20;;;15.40;;
8476;SDS011;4275;42.854;23.222;2023-07-31T08:27:36;16.70;;;15.90;;
8476;SDS011;4275;42.854;23.222;2023-07-31T08:30:04;16.60;;;15.75;;
8476;SDS011;4275;42.854;23.222;2023-07-31T08:32:33;16.85;;;16.15;;
8476;SDS011;4275;42.854;23.222;2023-07-31T08:35:00;16.50;;;15.80;;
8476;SDS011;4275;42.854;23.222;2023-07-31T08:37:27;16.67;;;15.98;;
8476;SDS011;4275;42.854;23.222;2023-07-31T08:39:54;16.80;;;16.08;;
8476;SDS011;4275;42.854;23.222;2023-07-31T08:42:22;17.05;;;16.27;;
8476;SDS011;4275;42.854;23.222;2023-07-31T08:44:50;16.92;;;16.23;;
8476;SDS011;4275;42.854;23.222;2023-07-31T08:47:19;17.10;;;16.40;;
8476;SDS011;4275;42.854;23.222;2023-07-31T08:49:48;17.63;;;16.83;;
8476;SDS011;4275;42.854;23.222;2023-07-31T08:52:17;18.00;;;17.20;;
8476;SDS011;4275;42.854;23.222;2023-07-31T08:54:45;18.02;;;17.23;;
8476;SDS011;4275;42.854;23.222;2023-07-31T08:57:12;17.77;;;16.98;;
8476;SDS011;4275;42.854;23.222;2023-07-31T08:59:40;18.38;;;17.58;;
8476;SDS011;4275;42.854;23.222;2023-07-31T09:02:08;18.38;;;17.58;;
8476;SDS011;4275;42.854;23.222;2023-07-31T09:04:35;17.98;;;17.17;;
8476;SDS011;4275;42.854;23.222;2023-07-31T09:07:04;17.50;;;16.70;;
8476;SDS011;4275;42.854;23.222;2023-07-31T09:09:34;18.60;;;17.80;;
8476;SDS011;4275;42.854;23.222;2023-07-31T09:12:01;18.17;;;17.38;;
8476;SDS011;4275;42.854;23.222;2023-07-31T09:14:29;18.08;;;17.27;;
8476;SDS011;4275;42.854;23.222;2023-07-31T09:16:56;18.48;;;17.67;;
8476;SDS011;4275;42.854;23.222;2023-07-31T09:19:25;19.15;;;18.25;;
8476;SDS011;4275;42.854;23.222;2023-07-31T09:21:53;17.98;;;17.17;;
8476;SDS011;4275;42.854;23.222;2023-07-31T09:24:28;17.88;;;17.08;;
8476;SDS011;4275;42.854;23.222;2023-07-31T09:26:56;19.48;;;18.58;;
8476;SDS011;4275;42.854;23.222;2023-07-31T09:29:25;20.23;;;19.33;;
8476;SDS011;4275;42.854;23.222;2023-07-31T09:31:53;21.20;;;20.20;;
8476;SDS011;4275;42.854;23.222;2023-07-31T09:34:20;21.30;;;20.30;;
8476;SDS011;4275;42.854;23.222;2023-07-31T09:36:57;20.85;;;19.85;;
8476;SDS011;4275;42.854;23.222;2023-07-31T09:39:29;21.08;;;20.08;;
8476;SDS011;4275;42.854;23.222;2023-07-31T09:41:56;20.73;;;19.73;;
8476;SDS011;4275;42.854;23.222;2023-07-31T09:44:37;20.23;;;19.33;;
8476;SDS011;4275;42.854;23.222;2023-07-31T09:47:05;20.27;;;19.38;;
8476;SDS011;4275;42.854;23.222;2023-07-31T09:49:32;20.70;;;19.70;;
8476;SDS011;4275;42.854;23.222;2023-07-31T09:52:00;20.92;;;19.92;;
8476;SDS011;4275;42.854;23.222;2023-07-31T09:54:26;19.20;;;18.30;;
8476;SDS011;4275;42.854;23.222;2023-07-31T09:56:55;20.58;;;19.58;;
8476;SDS011;4275;42.854;23.222;2023-07-31T09:59:25;20.27;;;19.27;;
8476;SDS011;4275;42.854;23.222;2023-07-31T10:01:52;20.13;;;19.13;;
8476;SDS011;4275;42.854;23.222;2023-07-31T10:04:23;19.75;;;18.85;;
8476;SDS011;4275;42.854;23.222;2023-07-31T10:06:56;20.38;;;19.38;;
8476;SDS011;4275;42.854;23.222;2023-07-31T10:09:26;38.95;;;36.95;;
8476;SDS011;4275;42.854;23.222;2023-07-31T10:12:00;40.72;;;38.50;;
8476;SDS011;4275;42.854;23.222;2023-07-31T10:14:28;40.42;;;38.22;;
8476;SDS011;4275;42.854;23.222;2023-07-31T10:16:57;20.60;;;19.60;;
8476;SDS011;4275;42.854;23.222;2023-07-31T10:19:26;20.15;;;19.15;;
8476;SDS011;4275;42.854;23.222;2023-07-31T10:21:53;20.13;;;19.13;;
8476;SDS011;4275;42.854;23.222;2023-07-31T10:24:23;19.83;;;18.83;;
8476;SDS011;4275;42.854;23.222;2023-07-31T10:26:53;19.65;;;18.75;;
8476;SDS011;4275;42.854;23.222;2023-07-31T10:29:26;20.38;;;19.38;;
8476;SDS011;4275;42.854;23.222;2023-07-31T10:31:55;21.00;;;20.00;;
8476;SDS011;4275;42.854;23.222;2023-07-31T10:34:24;20.63;;;19.63;;
8476;SDS011;4275;42.854;23.222;2023-07-31T10:36:53;19.95;;;18.95;;
8476;SDS011;4275;42.854;23.222;2023-07-31T10:40:00;20.45;;;19.45;;
8476;SDS011;4275;42.854;23.222;2023-07-31T10:42:33;20.45;;;19.45;;
8476;SDS011;4275;42.854;23.222;2023-07-31T10:45:02;20.58;;;19.58;;
8476;SDS011;4275;42.854;23.222;2023-07-31T10:47:31;20.42;;;19.42;;
8476;SDS011;4275;42.854;23.222;2023-07-31T10:50:18;20.05;;;19.05;;
8476;SDS011;4275;42.854;23.222;2023-07-31T10:52:47;20.30;;;19.20;;
8476;SDS011;4275;42.854;23.222;2023-07-31T10:55:25;19.75;;;18.75;;
8476;SDS011;4275;42.854;23.222;2023-07-31T10:57:55;19.73;;;18.73;;
8476;SDS011;4275;42.854;23.222;2023-07-31T11:00:24;19.60;;;18.60;;
8476;SDS011;4275;42.854;23.222;2023-07-31T11:02:57;19.83;;;18.83;;
8476;SDS011;4275;42.854;23.222;2023-07-31T11:05:40;21.45;;;19.80;;
8476;SDS011;4275;42.854;23.222;2023-07-31T11:08:12;20.17;;;19.08;;
8476;SDS011;4275;42.854;23.222;2023-07-31T11:10:40;20.00;;;19.00;;
8476;SDS011;4275;42.854;23.222;2023-07-31T11:13:09;19.73;;;18.73;;
8476;SDS011;4275;42.854;23.222;2023-07-31T11:15:36;19.48;;;18.48;;
8476;SDS011;4275;42.854;23.222;2023-07-31T11:18:04;19.58;;;18.58;;
8476;SDS011;4275;42.854;23.222;2023-07-31T11:20:33;19.13;;;18.13;;
8476;SDS011;4275;42.854;23.222;2023-07-31T11:23:01;19.02;;;18.02;;
8476;SDS011;4275;42.854;23.222;2023-07-31T11:25:29;19.20;;;18.20;;
8476;SDS011;4275;42.854;23.222;2023-07-31T11:27:57;19.38;;;18.38;;
8476;SDS011;4275;42.854;23.222;2023-07-31T11:30:29;19.58;;;18.58;;
8476;SDS011;4275;42.854;23.222;2023-07-31T11:32:56;19.20;;;18.20;;
8476;SDS011;4275;42.854;23.222;2023-07-31T11:35:23;20.17;;;19.08;;
8476;SDS011;4275;42.854;23.222;2023-07-31T11:37:50;19.23;;;18.23;;
8476;SDS011;4275;42.854;23.222;2023-07-31T11:40:17;19.25;;;18.25;;
8476;SDS011;4275;42.854;23.222;2023-07-31T11:42:45;19.17;;;18.17;;
8476;SDS011;4275;42.854;23.222;2023-07-31T11:45:12;19.40;;;18.40;;
8476;SDS011;4275;42.854;23.222;2023-07-31T11:47:40;19.55;;;18.55;;
8476;SDS011;4275;42.854;23.222;2023-07-31T11:50:10;19.50;;;18.50;;
8476;SDS011;4275;42.854;23.222;2023-07-31T11:52:39;20.90;;;19.77;;
8476;SDS011;4275;42.854;23.222;2023-07-31T11:55:09;19.65;;;18.65;;
8476;SDS011;4275;42.854;23.222;2023-07-31T11:57:37;18.88;;;17.98;;
8476;SDS011;4275;42.854;23.222;2023-07-31T12:00:06;19.02;;;18.02;;
8476;SDS011;4275;42.854;23.222;2023-07-31T12:02:36;19.27;;;18.35;;
8476;SDS011;4275;42.854;23.222;2023-07-31T12:05:06;18.98;;;17.98;;
8476;SDS011;4275;42.854;23.222;2023-07-31T12:07:44;19.75;;;18.65;;
8476;SDS011;4275;42.854;23.222;2023-07-31T12:10:21;19.48;;;18.48;;
8476;SDS011;4275;42.854;23.222;2023-07-31T12:12:55;20.55;;;19.55;;
8476;SDS011;4275;42.854;23.222;2023-07-31T12:15:32;19.50;;;18.50;;
8476;SDS011;4275;42.854;23.222;2023-07-31T12:18:02;19.13;;;18.13;;
8476;SDS011;4275;42.854;23.222;2023-07-31T12:20:32;18.88;;;17.88;;
8476;SDS011;4275;42.854;23.222;2023-07-31T12:23:00;19.60;;;18.60;;
8476;SDS011;4275;42.854;23.222;2023-07-31T12:25:31;19.25;;;18.25;;
8476;SDS011;4275;42.854;23.222;2023-07-31T12:28:03;19.17;;;18.17;;
8476;SDS011;4275;42.854;23.222;2023-07-31T12:30:33;19.60;;;18.60;;
8476;SDS011;4275;42.854;23.222;2023-07-31T12:33:03;19.80;;;18.80;;
8476;SDS011;4275;42.854;23.222;2023-07-31T12:35:36;19.63;;;18.60;;
8476;SDS011;4275;42.854;23.222;2023-07-31T12:38:04;19.20;;;18.20;;
8476;SDS011;4275;42.854;23.222;2023-07-31T12:40:31;19.58;;;18.58;;
8476;SDS011;4275;42.854;23.222;2023-07-31T12:43:00;19.65;;;18.65;;
8476;SDS011;4275;42.854;23.222;2023-07-31T12:45:29;19.60;;;18.60;;
8476;SDS011;4275;42.854;23.222;2023-07-31T12:47:56;19.50;;;18.42;;
8476;SDS011;4275;42.854;23.222;2023-07-31T12:50:23;19.60;;;18.58;;
8476;SDS011;4275;42.854;23.222;2023-07-31T12:52:52;19.35;;;18.30;;
8476;SDS011;4275;42.854;23.222;2023-07-31T12:55:19;19.15;;;18.15;;
8476;SDS011;4275;42.854;23.222;2023-07-31T12:57:47;19.83;;;18.73;;
8476;SDS011;4275;42.854;23.222;2023-07-31T13:00:14;19.63;;;18.52;;
8476;SDS011;4275;42.854;23.222;2023-07-31T13:02:41;19.45;;;18.35;;
8476;SDS011;4275;42.854;23.222;2023-07-31T13:05:08;19.60;;;18.50;;
8476;SDS011;4275;42.854;23.222;2023-07-31T13:07:35;19.60;;;18.50;;
8476;SDS011;4275;42.854;23.222;2023-07-31T13:10:06;19.63;;;18.52;;
8476;SDS011;4275;42.854;23.222;2023-07-31T13:12:33;19.25;;;18.15;;
8476;SDS011;4275;42.854;23.222;2023-07-31T13:15:01;19.13;;;18.13;;
8476;SDS011;4275;42.854;23.222;2023-07-31T13:17:28;19.42;;;18.38;;
8476;SDS011;4275;42.854;23.222;2023-07-31T13:19:55;19.45;;;18.35;;
8476;SDS011;4275;42.854;23.222;2023-07-31T13:22:22;19.60;;;18.60;;
8476;SDS011;4275;42.854;23.222;2023-07-31T13:24:49;19.10;;;18.10;;
8476;SDS011;4275;42.854;23.222;2023-07-31T13:27:17;19.48;;;18.48;;
8476;SDS011;4275;42.854;23.222;2023-07-31T13:29:46;19.70;;;18.60;;
8476;SDS011;4275;42.854;23.222;2023-07-31T13:32:15;19.98;;;18.88;;
8476;SDS011;4275;42.854;23.222;2023-07-31T13:34:42;19.42;;;18.33;;
8476;SDS011;4275;42.854;23.222;2023-07-31T13:37:09;19.50;;;18.40;;
8476;SDS011;4275;42.854;23.222;2023-07-31T13:39:36;19.50;;;18.40;;
8476;SDS011;4275;42.854;23.222;2023-07-31T13:42:04;19.63;;;18.52;;
8476;SDS011;4275;42.854;23.222;2023-07-31T13:44:34;19.55;;;18.45;;
8476;SDS011;4275;42.854;23.222;2023-07-31T13:47:01;19.52;;;18.42;;
8476;SDS011;4275;42.854;23.222;2023-07-31T13:49:29;19.45;;;18.35;;
8476;SDS011;4275;42.854;23.222;2023-07-31T13:51:56;19.27;;;18.17;;
8476;SDS011;4275;42.854;23.222;2023-07-31T13:54:24;19.88;;;18.67;;
8476;SDS011;4275;42.854;23.222;2023-07-31T13:56:52;19.40;;;18.30;;
8476;SDS011;4275;42.854;23.222;2023-07-31T13:59:19;19.33;;;18.23;;
8476;SDS011;4275;42.854;23.222;2023-07-31T14:01:48;19.48;;;18.38;;
8476;SDS011;4275;42.854;23.222;2023-07-31T14:04:16;17.90;;;16.90;;
8476;SDS011;4275;42.854;23.222;2023-07-31T14:06:44;19.65;;;18.45;;
8476;SDS011;4275;42.854;23.222;2023-07-31T14:09:13;17.98;;;16.98;;
8476;SDS011;4275;42.854;23.222;2023-07-31T14:11:40;17.90;;;16.90;;
8476;SDS011;4275;42.854;23.222;2023-07-31T14:14:08;17.90;;;16.90;;
8476;SDS011;4275;42.854;23.222;2023-07-31T14:16:35;17.75;;;16.75;;
8476;SDS011;4275;42.854;23.222;2023-07-31T14:19:04;19.45;;;18.35;;
8476;SDS011;4275;42.854;23.222;2023-07-31T14:21:31;19.45;;;18.35;;
8476;SDS011;4275;42.854;23.222;2023-07-31T14:23:58;19.45;;;18.35;;
8476;SDS011;4275;42.854;23.222;2023-07-31T14:26:25;19.45;;;18.35;;
8476;SDS011;4275;42.854;23.222;2023-07-31T14:28:52;44.45;;;41.85;;
8476;SDS011;4275;42.854;23.222;2023-07-31T14:31:19;19.48;;;18.38;;
8476;SDS011;4275;42.854;23.222;2023-07-31T14:33:46;19.65;;;18.45;;
8476;SDS011;4275;42.854;23.222;2023-07-31T14:36:14;19.90;;;18.70;;
8476;SDS011;4275;42.854;23.222;2023-07-31T14:38:41;19.70;;;18.50;;
8476;SDS011;4275;42.854;23.222;2023-07-31T14:41:08;19.80;;;18.60;;
8476;SDS011;4275;42.854;23.222;2023-07-31T14:43:35;19.80;;;18.60;;
8476;SDS011;4275;42.854;23.222;2023-07-31T14:46:02;19.77;;;18.58;;
8476;SDS011;4275;42.854;23.222;2023-07-31T14:48:29;19.50;;;18.40;;
8476;SDS011;4275;42.854;23.222;2023-07-31T14:50:56;19.55;;;18.45;;
8476;SDS011;4275;42.854;23.222;2023-07-31T14:53:25;19.52;;;18.42;;
8476;SDS011;4275;42.854;23.222;2023-07-31T14:55:52;19.45;;;18.35;;
8476;SDS011;4275;42.854;23.222;2023-07-31T14:58:20;19.75;;;18.65;;
8476;SDS011;4275;42.854;23.222;2023-07-31T15:00:47;19.60;;;18.50;;
8476;SDS011;4275;42.854;23.222;2023-07-31T15:03:14;19.55;;;18.48;;
8476;SDS011;4275;42.854;23.222;2023-07-31T15:05:41;19.02;;;18.02;;
8476;SDS011;4275;42.854;23.222;2023-07-31T15:08:08;20.52;;;19.42;;
8476;SDS011;4275;42.854;23.222;2023-07-31T15:10:37;20.80;;;19.70;;
8476;SDS011;4275;42.854;23.222;2023-07-31T15:13:04;20.77;;;19.67;;
8476;SDS011;4275;42.854;23.222;2023-07-31T15:15:31;20.35;;;19.35;;
8476;SDS011;4275;42.854;23.222;2023-07-31T15:17:58;20.42;;;19.42;;
8476;SDS011;4275;42.854;23.222;2023-07-31T15:20:25;20.77;;;19.67;;
8476;SDS011;4275;42.854;23.222;2023-07-31T15:22:52;20.40;;;19.40;;
8476;SDS011;4275;42.854;23.222;2023-07-31T15:25:19;20.75;;;19.65;;
8476;SDS011;4275;42.854;23.222;2023-07-31T15:27:47;20.77;;;19.67;;
8476;SDS011;4275;42.854;23.222;2023-07-31T15:30:14;20.60;;;19.60;;
8476;SDS011;4275;42.854;23.222;2023-07-31T15:32:41;20.60;;;19.60;;
8476;SDS011;4275;42.854;23.222;2023-07-31T15:35:13;20.55;;;19.55;;
8476;SDS011;4275;42.854;23.222;2023-07-31T15:37:40;20.05;;;19.05;;
8476;SDS011;4275;42.854;23.222;2023-07-31T15:40:08;20.00;;;19.00;;
8476;SDS011;4275;42.854;23.222;2023-07-31T15:42:35;20.20;;;19.20;;
8476;SDS011;4275;42.854;23.222;2023-07-31T15:45:07;20.38;;;19.38;;